sensor_id;sensor_type;location;lat;lon;timestamp;temperature;humidity
24226;DHT22;51462;51.422;5.514;2023-02-28T00:00:46;1.00;99.90
24226;DHT22;51462;51.422;5.514;2023-02-28T00:03:11;0.90;99.90
24226;DHT22;51462;51.422;5.514;2023-02-28T00:05:37;0.80;99.90
24226;DHT22;51462;51.422;5.514;2023-02-28T00:08:03;1.00;99.90
24226;DHT22;51462;51.422;5.514;2023-02-28T00:10:30;0.80;99.90
24226;DHT22;51462;51.422;5.514;2023-02-28T00:13:00;0.80;99.90
24226;DHT22;51462;51.422;5.514;2023-02-28T00:15:26;0.90;99.90
24226;DHT22;51462;51.422;5.514;2023-02-28T00:17:52;0.80;99.90
24226;DHT22;51462;51.422;5.514;2023-02-28T00:20:18;0.80;99.90
24226;DHT22;51462;51.422;5.514;2023-02-28T00:22:46;0.60;99.90
24226;DHT22;51462;51.422;5.514;2023-02-28T00:25:19;0.50;99.90
24226;DHT22;51462;51.422;5.514;2023-02-28T00:27:45;0.50;99.90
24226;DHT22;51462;51.422;5.514;2023-02-28T00:30:17;0.50;99.90
24226;DHT22;51462;51.422;5.514;2023-02-28T00:32:43;0.50;99.90
24226;DHT22;51462;51.422;5.514;2023-02-28T00:35:09;0.60;99.90
24226;DHT22;51462;51.422;5.514;2023-02-28T00:37:36;0.70;99.90
24226;DHT22;51462;51.422;5.514;2023-02-28T00:40:02;0.70;99.90
24226;DHT22;51462;51.422;5.514;2023-02-28T00:42:30;0.80;99.90
24226;DHT22;51462;51.422;5.514;2023-02-28T00:44:55;1.00;99.90
24226;DHT22;51462;51.422;5.514;2023-02-28T00:47:21;1.00;99.90
24226;DHT22;51462;51.422;5.514;2023-02-28T00:49:46;0.90;99.90
24226;DHT22;51462;51.422;5.514;2023-02-28T00:52:12;0.90;99.90
24226;DHT22;51462;51.422;5.514;2023-02-28T00:54:37;0.90;99.90
24226;DHT22;51462;51.422;5.514;2023-02-28T00:57:03;0.70;99.90
24226;DHT22;51462;51.422;5.514;2023-02-28T00:59:28;0.70;99.90
24226;DHT22;51462;51.422;5.514;2023-02-28T01:01:54;0.70;99.90
24226;DHT22;51462;51.422;5.514;2023-02-28T01:04:20;0.60;99.90
24226;DHT22;51462;51.422;5.514;2023-02-28T01:06:45;0.60;99.90
24226;DHT22;51462;51.422;5.514;2023-02-28T01:09:11;0.60;99.90
24226;DHT22;51462;51.422;5.514;2023-02-28T01:11:37;0.60;99.90
24226;DHT22;51462;51.422;5.514;2023-02-28T01:14:03;0.50;99.90
24226;DHT22;51462;51.422;5.514;2023-02-28T01:16:29;0.30;99.90
24226;DHT22;51462;51.422;5.514;2023-02-28T01:18:54;0.20;99.90
24226;DHT22;51462;51.422;5.514;2023-02-28T01:21:23;0.20;99.90
24226;DHT22;51462;51.422;5.514;2023-02-28T01:23:49;0.10;99.90
24226;DHT22;51462;51.422;5.514;2023-02-28T01:26:19;0.00;99.90
24226;DHT22;51462;51.422;5.514;2023-02-28T01:28:45;0.10;99.90
24226;DHT22;51462;51.422;5.514;2023-02-28T01:31:11;0.00;99.90
24226;DHT22;51462;51.422;5.514;2023-02-28T01:33:37;-0.10;99.90
24226;DHT22;51462;51.422;5.514;2023-02-28T01:36:23;-0.10;99.90
24226;DHT22;51462;51.422;5.514;2023-02-28T01:38:49;-0.10;99.90
24226;DHT22;51462;51.422;5.514;2023-02-28T01:41:21;0.10;99.90
24226;DHT22;51462;51.422;5.514;2023-02-28T01:46:13;-0.10;99.90
24226;DHT22;51462;51.422;5.514;2023-02-28T01:48:51;-0.10;99.90
24226;DHT22;51462;51.422;5.514;2023-02-28T01:51:29;0.00;99.90
24226;DHT22;51462;51.422;5.514;2023-02-28T01:54:00;0.00;99.90
24226;DHT22;51462;51.422;5.514;2023-02-28T01:56:30;-0.10;99.90
24226;DHT22;51462;51.422;5.514;2023-02-28T01:58:57;-0.20;99.90
24226;DHT22;51462;51.422;5.514;2023-02-28T02:01:24;-0.20;99.90
24226;DHT22;51462;51.422;5.514;2023-02-28T02:03:54;-0.20;99.90
24226;DHT22;51462;51.422;5.514;2023-02-28T02:06:28;-0.20;99.90
24226;DHT22;51462;51.422;5.514;2023-02-28T02:08:54;-0.30;99.90
24226;DHT22;51462;51.422;5.514;2023-02-28T02:11:22;-0.30;99.90
24226;DHT22;51462;51.422;5.514;2023-02-28T02:13:58;-0.40;99.90
24226;DHT22;51462;51.422;5.514;2023-02-28T02:16:50;-0.40;99.90
24226;DHT22;51462;51.422;5.514;2023-02-28T02:22:20;-0.50;99.90
24226;DHT22;51462;51.422;5.514;2023-02-28T02:38:08;-0.60;99.90
24226;DHT22;51462;51.422;5.514;2023-02-28T02:43:25;-0.60;99.90
24226;DHT22;51462;51.422;5.514;2023-02-28T02:45:58;-0.60;99.90
24226;DHT22;51462;51.422;5.514;2023-02-28T02:48:27;-0.60;99.90
24226;DHT22;51462;51.422;5.514;2023-02-28T02:50:57;-0.70;99.90
24226;DHT22;51462;51.422;5.514;2023-02-28T02:53:47;-0.60;99.90
24226;DHT22;51462;51.422;5.514;2023-02-28T02:56:19;-0.60;99.90
24226;DHT22;51462;51.422;5.514;2023-02-28T02:58:47;-0.50;99.90
24226;DHT22;51462;51.422;5.514;2023-02-28T03:01:18;-0.50;99.90
24226;DHT22;51462;51.422;5.514;2023-02-28T03:03:56;-0.40;99.90
24226;DHT22;51462;51.422;5.514;2023-02-28T03:06:22;-0.40;99.90
24226;DHT22;51462;51.422;5.514;2023-02-28T03:08:47;-0.30;99.90
24226;DHT22;51462;51.422;5.514;2023-02-28T03:11:14;-0.30;99.90
24226;DHT22;51462;51.422;5.514;2023-02-28T03:14:07;-0.20;99.90
24226;DHT22;51462;51.422;5.514;2023-02-28T03:16:57;-0.10;99.90
24226;DHT22;51462;51.422;5.514;2023-02-28T03:27:34;0.10;99.90
24226;DHT22;51462;51.422;5.514;2023-02-28T03:30:10;0.40;99.90
24226;DHT22;51462;51.422;5.514;2023-02-28T03:32:43;0.30;99.90
24226;DHT22;51462;51.422;5.514;2023-02-28T03:35:12;0.50;99.90
24226;DHT22;51462;51.422;5.514;2023-02-28T03:37:41;0.40;99.90
24226;DHT22;51462;51.422;5.514;2023-02-28T03:40:13;0.40;99.90
24226;DHT22;51462;51.422;5.514;2023-02-28T03:42:42;0.40;99.90
24226;DHT22;51462;51.422;5.514;2023-02-28T03:45:10;0.50;99.90
24226;DHT22;51462;51.422;5.514;2023-02-28T03:52:51;0.60;99.90
24226;DHT22;51462;51.422;5.514;2023-02-28T03:55:18;0.50;99.90
24226;DHT22;51462;51.422;5.514;2023-02-28T04:00:21;0.40;99.90
24226;DHT22;51462;51.422;5.514;2023-02-28T04:02:49;0.30;99.90
24226;DHT22;51462;51.422;5.514;2023-02-28T04:05:21;0.30;99.90
24226;DHT22;51462;51.422;5.514;2023-02-28T04:07:47;0.30;99.90
24226;DHT22;51462;51.422;5.514;2023-02-28T04:10:14;0.30;99.90
24226;DHT22;51462;51.422;5.514;2023-02-28T04:12:40;0.30;99.90
24226;DHT22;51462;51.422;5.514;2023-02-28T04:15:06;0.30;99.90
24226;DHT22;51462;51.422;5.514;2023-02-28T04:17:32;0.30;99.90
24226;DHT22;51462;51.422;5.514;2023-02-28T04:19:58;0.30;99.90
24226;DHT22;51462;51.422;5.514;2023-02-28T04:22:24;0.30;99.90
24226;DHT22;51462;51.422;5.514;2023-02-28T04:24:52;0.20;99.90
24226;DHT22;51462;51.422;5.514;2023-02-28T04:27:20;0.20;99.90
24226;DHT22;51462;51.422;5.514;2023-02-28T04:29:46;0.20;99.90
24226;DHT22;51462;51.422;5.514;2023-02-28T04:32:12;0.30;99.90
24226;DHT22;51462;51.422;5.514;2023-02-28T04:34:37;0.30;99.90
24226;DHT22;51462;51.422;5.514;2023-02-28T04:37:04;0.20;99.90
24226;DHT22;51462;51.422;5.514;2023-02-28T04:39:29;0.20;99.90
24226;DHT22;51462;51.422;5.514;2023-02-28T04:41:55;0.30;99.90
24226;DHT22;51462;51.422;5.514;2023-02-28T04:44:22;0.30;99.90
24226;DHT22;51462;51.422;5.514;2023-02-28T04:46:48;0.30;99.90
24226;DHT22;51462;51.422;5.514;2023-02-28T04:49:14;0.30;99.90
24226;DHT22;51462;51.422;5.514;2023-02-28T04:51:41;0.50;99.90
24226;DHT22;51462;51.422;5.514;2023-02-28T04:54:07;0.60;99.90
24226;DHT22;51462;51.422;5.514;2023-02-28T04:56:33;0.50;99.90
24226;DHT22;51462;51.422;5.514;2023-02-28T04:58:58;0.50;99.90
24226;DHT22;51462;51.422;5.514;2023-02-28T05:01:27;0.50;99.90
24226;DHT22;51462;51.422;5.514;2023-02-28T05:03:56;0.60;99.90
24226;DHT22;51462;51.422;5.514;2023-02-28T05:06:23;0.60;99.90
24226;DHT22;51462;51.422;5.514;2023-02-28T05:08:50;0.60;99.90
24226;DHT22;51462;51.422;5.514;2023-02-28T05:11:19;0.60;99.90
24226;DHT22;51462;51.422;5.514;2023-02-28T05:13:46;0.60;99.90
24226;DHT22;51462;51.422;5.514;2023-02-28T05:16:11;0.60;99.90
24226;DHT22;51462;51.422;5.514;2023-02-28T05:18:38;0.60;99.90
24226;DHT22;51462;51.422;5.514;2023-02-28T05:21:03;0.60;99.90
24226;DHT22;51462;51.422;5.514;2023-02-28T05:23:29;0.60;99.90
24226;DHT22;51462;51.422;5.514;2023-02-28T05:25:55;0.70;99.90
24226;DHT22;51462;51.422;5.514;2023-02-28T05:28:21;0.80;99.90
24226;DHT22;51462;51.422;5.514;2023-02-28T05:30:47;0.80;99.90
24226;DHT22;51462;51.422;5.514;2023-02-28T05:33:13;0.70;99.90
24226;DHT22;51462;51.422;5.514;2023-02-28T05:35:42;0.80;99.90
24226;DHT22;51462;51.422;5.514;2023-02-28T05:38:08;0.80;99.90
24226;DHT22;51462;51.422;5.514;2023-02-28T05:40:34;0.80;99.90
24226;DHT22;51462;51.422;5.514;2023-02-28T05:42:59;0.90;99.90
24226;DHT22;51462;51.422;5.514;2023-02-28T05:45:25;1.00;99.90
24226;DHT22;51462;51.422;5.514;2023-02-28T05:47:54;1.00;99.90
24226;DHT22;51462;51.422;5.514;2023-02-28T05:50:19;1.00;99.90
24226;DHT22;51462;51.422;5.514;2023-02-28T05:52:50;0.90;99.90
24226;DHT22;51462;51.422;5.514;2023-02-28T05:55:15;0.90;99.90
24226;DHT22;51462;51.422;5.514;2023-02-28T05:57:41;0.90;99.90
24226;DHT22;51462;51.422;5.514;2023-02-28T06:00:08;1.10;99.90
24226;DHT22;51462;51.422;5.514;2023-02-28T06:02:34;0.90;99.90
24226;DHT22;51462;51.422;5.514;2023-02-28T06:04:59;0.80;99.90
24226;DHT22;51462;51.422;5.514;2023-02-28T06:07:25;1.20;99.90
24226;DHT22;51462;51.422;5.514;2023-02-28T06:09:50;1.00;99.90
24226;DHT22;51462;51.422;5.514;2023-02-28T06:12:16;1.20;99.90
24226;DHT22;51462;51.422;5.514;2023-02-28T06:14:42;1.10;99.90
24226;DHT22;51462;51.422;5.514;2023-02-28T06:17:09;0.90;99.90
24226;DHT22;51462;51.422;5.514;2023-02-28T06:19:37;0.90;99.90
24226;DHT22;51462;51.422;5.514;2023-02-28T06:22:04;1.10;99.90
24226;DHT22;51462;51.422;5.514;2023-02-28T06:24:29;1.00;99.90
24226;DHT22;51462;51.422;5.514;2023-02-28T06:26:56;0.80;99.90
24226;DHT22;51462;51.422;5.514;2023-02-28T06:29:24;0.60;99.90
24226;DHT22;51462;51.422;5.514;2023-02-28T06:31:50;0.80;99.90
24226;DHT22;51462;51.422;5.514;2023-02-28T06:34:16;0.70;99.90
24226;DHT22;51462;51.422;5.514;2023-02-28T06:36:42;0.60;99.90
24226;DHT22;51462;51.422;5.514;2023-02-28T06:39:08;0.70;99.90
24226;DHT22;51462;51.422;5.514;2023-02-28T06:41:34;0.80;99.90
24226;DHT22;51462;51.422;5.514;2023-02-28T06:44:13;0.90;99.90
24226;DHT22;51462;51.422;5.514;2023-02-28T06:46:40;0.90;99.90
24226;DHT22;51462;51.422;5.514;2023-02-28T06:49:07;1.00;99.90
24226;DHT22;51462;51.422;5.514;2023-02-28T06:51:37;1.00;99.90
24226;DHT22;51462;51.422;5.514;2023-02-28T06:54:04;1.10;99.90
24226;DHT22;51462;51.422;5.514;2023-02-28T06:56:30;1.10;99.90
24226;DHT22;51462;51.422;5.514;2023-02-28T06:58:56;1.30;99.90
24226;DHT22;51462;51.422;5.514;2023-02-28T07:01:22;1.20;99.90
24226;DHT22;51462;51.422;5.514;2023-02-28T07:03:49;2.80;99.90
24226;DHT22;51462;51.422;5.514;2023-02-28T07:06:18;3.70;99.90
24226;DHT22;51462;51.422;5.514;2023-02-28T07:08:44;3.90;99.90
24226;DHT22;51462;51.422;5.514;2023-02-28T07:11:10;4.00;99.90
24226;DHT22;51462;51.422;5.514;2023-02-28T07:13:36;4.20;99.90
24226;DHT22;51462;51.422;5.514;2023-02-28T07:16:05;4.10;99.90
24226;DHT22;51462;51.422;5.514;2023-02-28T07:18:31;4.00;99.90
24226;DHT22;51462;51.422;5.514;2023-02-28T07:20:57;3.60;99.90
24226;DHT22;51462;51.422;5.514;2023-02-28T07:23:22;3.50;99.90
24226;DHT22;51462;51.422;5.514;2023-02-28T07:25:50;3.50;99.90
24226;DHT22;51462;51.422;5.514;2023-02-28T07:28:15;3.10;99.90
24226;DHT22;51462;51.422;5.514;2023-02-28T07:30:41;2.80;99.90
24226;DHT22;51462;51.422;5.514;2023-02-28T07:33:07;2.80;99.90
24226;DHT22;51462;51.422;5.514;2023-02-28T07:35:33;3.00;99.90
24226;DHT22;51462;51.422;5.514;2023-02-28T07:37:59;2.90;99.90
24226;DHT22;51462;51.422;5.514;2023-02-28T07:40:25;2.90;99.90
24226;DHT22;51462;51.422;5.514;2023-02-28T07:42:51;2.70;99.90
24226;DHT22;51462;51.422;5.514;2023-02-28T07:45:17;2.90;99.90
24226;DHT22;51462;51.422;5.514;2023-02-28T07:47:43;3.20;99.90
24226;DHT22;51462;51.422;5.514;2023-02-28T07:50:11;3.20;99.90
24226;DHT22;51462;51.422;5.514;2023-02-28T07:52:38;3.60;99.90
24226;DHT22;51462;51.422;5.514;2023-02-28T07:55:05;3.90;99.90
24226;DHT22;51462;51.422;5.514;2023-02-28T07:57:31;4.00;99.90
24226;DHT22;51462;51.422;5.514;2023-02-28T07:59:57;4.20;99.90
24226;DHT22;51462;51.422;5.514;2023-02-28T08:02:22;4.50;99.90
24226;DHT22;51462;51.422;5.514;2023-02-28T08:04:48;4.50;99.90
24226;DHT22;51462;51.422;5.514;2023-02-28T08:07:14;4.60;99.90
24226;DHT22;51462;51.422;5.514;2023-02-28T08:09:41;4.80;99.90
24226;DHT22;51462;51.422;5.514;2023-02-28T08:12:07;4.80;99.90
24226;DHT22;51462;51.422;5.514;2023-02-28T08:14:33;4.90;99.90
24226;DHT22;51462;51.422;5.514;2023-02-28T08:16:59;4.90;99.90
24226;DHT22;51462;51.422;5.514;2023-02-28T08:19:24;4.90;99.90
24226;DHT22;51462;51.422;5.514;2023-02-28T08:21:50;5.00;99.90
24226;DHT22;51462;51.422;5.514;2023-02-28T08:24:15;5.00;99.90
24226;DHT22;51462;51.422;5.514;2023-02-28T08:26:41;5.10;99.90
24226;DHT22;51462;51.422;5.514;2023-02-28T08:29:06;5.00;99.90
24226;DHT22;51462;51.422;5.514;2023-02-28T08:31:32;4.70;99.90
24226;DHT22;51462;51.422;5.514;2023-02-28T08:33:58;5.00;99.90
24226;DHT22;51462;51.422;5.514;2023-02-28T08:36:25;5.00;99.90
24226;DHT22;51462;51.422;5.514;2023-02-28T08:38:51;4.90;99.90
24226;DHT22;51462;51.422;5.514;2023-02-28T08:41:17;4.90;99.90
24226;DHT22;51462;51.422;5.514;2023-02-28T08:43:43;5.10;99.90
24226;DHT22;51462;51.422;5.514;2023-02-28T08:46:12;5.00;99.90
24226;DHT22;51462;51.422;5.514;2023-02-28T08:48:37;5.10;99.90
24226;DHT22;51462;51.422;5.514;2023-02-28T08:51:09;5.10;99.90
24226;DHT22;51462;51.422;5.514;2023-02-28T08:53:39;5.30;99.90
24226;DHT22;51462;51.422;5.514;2023-02-28T08:56:06;5.20;99.90
24226;DHT22;51462;51.422;5.514;2023-02-28T08:58:33;5.30;99.90
24226;DHT22;51462;51.422;5.514;2023-02-28T09:00:59;5.30;99.90
24226;DHT22;51462;51.422;5.514;2023-02-28T09:03:25;5.20;99.90
24226;DHT22;51462;51.422;5.514;2023-02-28T09:05:56;5.10;99.90
24226;DHT22;51462;51.422;5.514;2023-02-28T09:08:23;5.30;99.90
24226;DHT22;51462;51.422;5.514;2023-02-28T09:10:49;5.10;99.90
24226;DHT22;51462;51.422;5.514;2023-02-28T09:13:15;5.10;99.90
24226;DHT22;51462;51.422;5.514;2023-02-28T09:15:40;5.20;99.90
24226;DHT22;51462;51.422;5.514;2023-02-28T09:18:06;5.00;99.90
24226;DHT22;51462;51.422;5.514;2023-02-28T09:20:31;5.20;99.90
24226;DHT22;51462;51.422;5.514;2023-02-28T09:22:57;5.20;99.90
24226;DHT22;51462;51.422;5.514;2023-02-28T09:25:22;5.20;99.90
24226;DHT22;51462;51.422;5.514;2023-02-28T09:27:48;5.10;99.90
24226;DHT22;51462;51.422;5.514;2023-02-28T09:30:14;5.20;99.90
24226;DHT22;51462;51.422;5.514;2023-02-28T09:32:40;5.20;99.90
24226;DHT22;51462;51.422;5.514;2023-02-28T09:35:06;5.30;99.90
24226;DHT22;51462;51.422;5.514;2023-02-28T09:37:32;5.20;99.90
24226;DHT22;51462;51.422;5.514;2023-02-28T09:39:57;5.20;99.90
24226;DHT22;51462;51.422;5.514;2023-02-28T09:42:32;5.20;99.90
24226;DHT22;51462;51.422;5.514;2023-02-28T09:45:00;5.20;99.90
24226;DHT22;51462;51.422;5.514;2023-02-28T09:47:31;5.20;99.90
24226;DHT22;51462;51.422;5.514;2023-02-28T09:50:06;5.20;99.90
24226;DHT22;51462;51.422;5.514;2023-02-28T09:52:36;5.30;99.90
24226;DHT22;51462;51.422;5.514;2023-02-28T09:55:31;5.20;99.90
24226;DHT22;51462;51.422;5.514;2023-02-28T09:57:58;5.30;99.90
24226;DHT22;51462;51.422;5.514;2023-02-28T10:00:39;5.30;99.90
24226;DHT22;51462;51.422;5.514;2023-02-28T10:03:35;5.20;99.90
24226;DHT22;51462;51.422;5.514;2023-02-28T10:06:20;5.20;99.90
24226;DHT22;51462;51.422;5.514;2023-02-28T10:09:11;5.10;99.90
24226;DHT22;51462;51.422;5.514;2023-02-28T10:11:41;5.30;99.90
24226;DHT22;51462;51.422;5.514;2023-02-28T10:14:20;5.30;99.90
24226;DHT22;51462;51.422;5.514;2023-02-28T10:16:49;5.20;99.90
24226;DHT22;51462;51.422;5.514;2023-02-28T10:24:43;5.20;99.90
24226;DHT22;51462;51.422;5.514;2023-02-28T10:27:17;5.10;99.90
24226;DHT22;51462;51.422;5.514;2023-02-28T10:29:46;5.10;99.90
24226;DHT22;51462;51.422;5.514;2023-02-28T10:32:20;5.30;99.90
24226;DHT22;51462;51.422;5.514;2023-02-28T10:35:24;5.40;99.90
24226;DHT22;51462;51.422;5.514;2023-02-28T10:37:57;5.30;99.90
24226;DHT22;51462;51.422;5.514;2023-02-28T10:42:57;5.20;99.90
24226;DHT22;51462;51.422;5.514;2023-02-28T10:45:23;5.40;99.90
24226;DHT22;51462;51.422;5.514;2023-02-28T10:48:32;5.40;99.90
24226;DHT22;51462;51.422;5.514;2023-02-28T10:50:59;5.40;99.90
24226;DHT22;51462;51.422;5.514;2023-02-28T10:53:32;5.50;99.90
24226;DHT22;51462;51.422;5.514;2023-02-28T10:56:03;5.70;99.90
24226;DHT22;51462;51.422;5.514;2023-02-28T11:03:51;6.00;99.90
24226;DHT22;51462;51.422;5.514;2023-02-28T11:06:22;6.10;99.90
24226;DHT22;51462;51.422;5.514;2023-02-28T11:09:00;6.20;99.90
24226;DHT22;51462;51.422;5.514;2023-02-28T11:11:28;6.30;99.90
24226;DHT22;51462;51.422;5.514;2023-02-28T11:13:58;6.30;99.90
24226;DHT22;51462;51.422;5.514;2023-02-28T11:16:36;6.40;99.90
24226;DHT22;51462;51.422;5.514;2023-02-28T11:19:04;6.50;99.90
24226;DHT22;51462;51.422;5.514;2023-02-28T11:21:36;6.60;99.90
24226;DHT22;51462;51.422;5.514;2023-02-28T11:24:20;6.70;99.90
24226;DHT22;51462;51.422;5.514;2023-02-28T11:26:49;6.70;99.90
24226;DHT22;51462;51.422;5.514;2023-02-28T11:29:21;6.80;99.90
24226;DHT22;51462;51.422;5.514;2023-02-28T11:32:12;6.90;99.90
24226;DHT22;51462;51.422;5.514;2023-02-28T11:34:39;7.00;99.90
24226;DHT22;51462;51.422;5.514;2023-02-28T11:37:11;7.10;99.90
24226;DHT22;51462;51.422;5.514;2023-02-28T11:39:37;7.10;99.90
24226;DHT22;51462;51.422;5.514;2023-02-28T11:42:36;7.20;99.90
24226;DHT22;51462;51.422;5.514;2023-02-28T11:53:31;7.40;99.90
24226;DHT22;51462;51.422;5.514;2023-02-28T12:01:46;7.70;99.90
24226;DHT22;51462;51.422;5.514;2023-02-28T12:07:47;8.00;99.90
24226;DHT22;51462;51.422;5.514;2023-02-28T12:10:20;7.90;99.90
24226;DHT22;51462;51.422;5.514;2023-02-28T12:13:01;7.90;99.90
24226;DHT22;51462;51.422;5.514;2023-02-28T12:18:38;8.30;99.90
24226;DHT22;51462;51.422;5.514;2023-02-28T12:21:35;7.70;99.90
24226;DHT22;51462;51.422;5.514;2023-02-28T12:26:39;8.20;99.90
24226;DHT22;51462;51.422;5.514;2023-02-28T12:29:21;8.40;99.90
24226;DHT22;51462;51.422;5.514;2023-02-28T12:31:56;8.70;99.90
24226;DHT22;51462;51.422;5.514;2023-02-28T12:34:33;8.30;99.90
24226;DHT22;51462;51.422;5.514;2023-02-28T12:37:03;8.40;99.90
24226;DHT22;51462;51.422;5.514;2023-02-28T12:39:35;8.40;99.90
24226;DHT22;51462;51.422;5.514;2023-02-28T12:42:28;8.40;99.90
24226;DHT22;51462;51.422;5.514;2023-02-28T12:45:12;8.50;99.90
24226;DHT22;51462;51.422;5.514;2023-02-28T12:47:42;8.40;99.90
24226;DHT22;51462;51.422;5.514;2023-02-28T12:50:10;8.60;99.90
24226;DHT22;51462;51.422;5.514;2023-02-28T13:04:32;8.80;99.90
24226;DHT22;51462;51.422;5.514;2023-02-28T13:10:04;8.80;99.90
24226;DHT22;51462;51.422;5.514;2023-02-28T13:12:32;9.10;99.90
24226;DHT22;51462;51.422;5.514;2023-02-28T13:15:21;9.10;99.90
24226;DHT22;51462;51.422;5.514;2023-02-28T13:17:51;9.20;99.90
24226;DHT22;51462;51.422;5.514;2023-02-28T13:20:46;9.20;99.90
24226;DHT22;51462;51.422;5.514;2023-02-28T13:23:38;9.30;99.90
24226;DHT22;51462;51.422;5.514;2023-02-28T13:26:04;9.30;99.90
24226;DHT22;51462;51.422;5.514;2023-02-28T13:31:15;9.50;99.90
24226;DHT22;51462;51.422;5.514;2023-02-28T13:38:42;10.00;99.90
24226;DHT22;51462;51.422;5.514;2023-02-28T13:44:05;10.00;99.90
24226;DHT22;51462;51.422;5.514;2023-02-28T13:46:38;9.90;99.90
24226;DHT22;51462;51.422;5.514;2023-02-28T13:49:31;10.20;99.90
24226;DHT22;51462;51.422;5.514;2023-02-28T13:54:57;10.20;99.90
24226;DHT22;51462;51.422;5.514;2023-02-28T14:06:18;10.60;99.90
24226;DHT22;51462;51.422;5.514;2023-02-28T14:08:55;11.00;99.90
24226;DHT22;51462;51.422;5.514;2023-02-28T14:11:29;11.50;99.90
24226;DHT22;51462;51.422;5.514;2023-02-28T14:13:55;11.70;98.20
24226;DHT22;51462;51.422;5.514;2023-02-28T14:16:24;11.70;99.90
24226;DHT22;51462;51.422;5.514;2023-02-28T14:18:55;11.90;99.90
24226;DHT22;51462;51.422;5.514;2023-02-28T14:21:24;11.80;99.90
24226;DHT22;51462;51.422;5.514;2023-02-28T14:34:41;13.10;97.80
24226;DHT22;51462;51.422;5.514;2023-02-28T14:37:16;12.50;99.90
24226;DHT22;51462;51.422;5.514;2023-02-28T14:39:44;12.00;99.90
24226;DHT22;51462;51.422;5.514;2023-02-28T14:42:35;12.60;99.90
24226;DHT22;51462;51.422;5.514;2023-02-28T14:45:02;13.10;96.30
24226;DHT22;51462;51.422;5.514;2023-02-28T14:47:31;13.90;97.90
24226;DHT22;51462;51.422;5.514;2023-02-28T14:49:59;13.90;97.40
24226;DHT22;51462;51.422;5.514;2023-02-28T14:52:27;14.60;97.60
24226;DHT22;51462;51.422;5.514;2023-02-28T14:55:05;14.90;98.60
24226;DHT22;51462;51.422;5.514;2023-02-28T14:57:34;14.50;99.10
24226;DHT22;51462;51.422;5.514;2023-02-28T15:00:17;14.80;95.80
24226;DHT22;51462;51.422;5.514;2023-02-28T15:02:45;15.40;91.70
24226;DHT22;51462;51.422;5.514;2023-02-28T15:07:43;15.20;94.10
24226;DHT22;51462;51.422;5.514;2023-02-28T15:10:23;15.40;94.10
24226;DHT22;51462;51.422;5.514;2023-02-28T15:12:58;16.50;93.30
24226;DHT22;51462;51.422;5.514;2023-02-28T15:15:55;16.10;92.00
24226;DHT22;51462;51.422;5.514;2023-02-28T15:24:18;14.20;95.50
24226;DHT22;51462;51.422;5.514;2023-02-28T15:26:57;14.80;94.80
24226;DHT22;51462;51.422;5.514;2023-02-28T15:29:25;14.60;94.30
24226;DHT22;51462;51.422;5.514;2023-02-28T15:31:56;15.20;92.10
24226;DHT22;51462;51.422;5.514;2023-02-28T15:34:37;14.60;90.50
24226;DHT22;51462;51.422;5.514;2023-02-28T15:37:30;14.70;93.50
24226;DHT22;51462;51.422;5.514;2023-02-28T15:40:13;14.00;92.70
24226;DHT22;51462;51.422;5.514;2023-02-28T15:42:40;13.80;93.20
24226;DHT22;51462;51.422;5.514;2023-02-28T15:45:37;12.80;97.70
24226;DHT22;51462;51.422;5.514;2023-02-28T15:48:51;12.50;95.30
24226;DHT22;51462;51.422;5.514;2023-02-28T15:51:40;11.80;99.70
24226;DHT22;51462;51.422;5.514;2023-02-28T15:53:51;11.40;99.90
24226;DHT22;51462;51.422;5.514;2023-02-28T15:58:57;11.30;99.90
24226;DHT22;51462;51.422;5.514;2023-02-28T16:01:38;11.30;98.70
24226;DHT22;51462;51.422;5.514;2023-02-28T16:04:06;11.30;98.40
24226;DHT22;51462;51.422;5.514;2023-02-28T16:09:04;11.50;99.90
24226;DHT22;51462;51.422;5.514;2023-02-28T16:11:30;11.60;95.70
24226;DHT22;51462;51.422;5.514;2023-02-28T16:13:57;11.40;94.00
24226;DHT22;51462;51.422;5.514;2023-02-28T16:16:24;11.20;99.90
24226;DHT22;51462;51.422;5.514;2023-02-28T16:18:51;11.10;99.90
24226;DHT22;51462;51.422;5.514;2023-02-28T16:21:17;11.00;99.90
24226;DHT22;51462;51.422;5.514;2023-02-28T16:23:42;11.00;99.90
24226;DHT22;51462;51.422;5.514;2023-02-28T16:26:10;11.10;97.40
24226;DHT22;51462;51.422;5.514;2023-02-28T16:28:41;11.00;99.90
24226;DHT22;51462;51.422;5.514;2023-02-28T16:31:07;10.80;99.90
24226;DHT22;51462;51.422;5.514;2023-02-28T16:33:35;10.70;99.90
24226;DHT22;51462;51.422;5.514;2023-02-28T16:36:00;10.60;99.90
24226;DHT22;51462;51.422;5.514;2023-02-28T16:38:26;10.70;99.90
24226;DHT22;51462;51.422;5.514;2023-02-28T16:40:53;10.50;98.50
24226;DHT22;51462;51.422;5.514;2023-02-28T16:43:23;10.60;99.90
24226;DHT22;51462;51.422;5.514;2023-02-28T16:45:55;10.50;99.90
24226;DHT22;51462;51.422;5.514;2023-02-28T16:48:22;10.60;99.90
24226;DHT22;51462;51.422;5.514;2023-02-28T16:50:47;10.30;98.60
24226;DHT22;51462;51.422;5.514;2023-02-28T16:53:13;10.20;97.00
24226;DHT22;51462;51.422;5.514;2023-02-28T16:55:39;9.80;98.30
24226;DHT22;51462;51.422;5.514;2023-02-28T16:58:04;9.90;99.90
24226;DHT22;51462;51.422;5.514;2023-02-28T17:00:31;9.80;99.90
24226;DHT22;51462;51.422;5.514;2023-02-28T17:02:57;9.80;99.90
24226;DHT22;51462;51.422;5.514;2023-02-28T17:05:25;9.60;99.90
24226;DHT22;51462;51.422;5.514;2023-02-28T17:07:51;9.60;99.90
24226;DHT22;51462;51.422;5.514;2023-02-28T17:10:24;9.40;99.90
24226;DHT22;51462;51.422;5.514;2023-02-28T17:12:50;9.40;99.90
24226;DHT22;51462;51.422;5.514;2023-02-28T17:15:17;9.30;99.90
24226;DHT22;51462;51.422;5.514;2023-02-28T17:17:44;9.30;99.90
24226;DHT22;51462;51.422;5.514;2023-02-28T17:20:13;9.20;99.90
24226;DHT22;51462;51.422;5.514;2023-02-28T17:22:39;9.30;99.90
24226;DHT22;51462;51.422;5.514;2023-02-28T17:25:05;8.90;99.90
24226;DHT22;51462;51.422;5.514;2023-02-28T17:27:31;9.00;99.90
24226;DHT22;51462;51.422;5.514;2023-02-28T17:29:56;9.00;99.90
24226;DHT22;51462;51.422;5.514;2023-02-28T17:32:22;8.80;99.90
24226;DHT22;51462;51.422;5.514;2023-02-28T17:34:47;8.40;99.90
24226;DHT22;51462;51.422;5.514;2023-02-28T17:37:13;8.10;99.90
24226;DHT22;51462;51.422;5.514;2023-02-28T17:39:38;7.60;99.90
24226;DHT22;51462;51.422;5.514;2023-02-28T17:42:04;7.20;99.90
24226;DHT22;51462;51.422;5.514;2023-02-28T17:44:29;7.10;99.90
24226;DHT22;51462;51.422;5.514;2023-02-28T17:46:55;6.90;99.90
24226;DHT22;51462;51.422;5.514;2023-02-28T17:49:21;6.80;99.90
24226;DHT22;51462;51.422;5.514;2023-02-28T17:51:48;6.60;99.90
24226;DHT22;51462;51.422;5.514;2023-02-28T17:54:14;6.40;99.90
24226;DHT22;51462;51.422;5.514;2023-02-28T17:56:40;6.30;99.90
24226;DHT22;51462;51.422;5.514;2023-02-28T17:59:08;6.20;99.90
24226;DHT22;51462;51.422;5.514;2023-02-28T18:01:34;6.10;99.90
24226;DHT22;51462;51.422;5.514;2023-02-28T18:03:59;6.00;99.90
24226;DHT22;51462;51.422;5.514;2023-02-28T18:06:28;5.90;99.90
24226;DHT22;51462;51.422;5.514;2023-02-28T18:08:56;5.90;99.90
24226;DHT22;51462;51.422;5.514;2023-02-28T18:11:23;5.80;99.90
24226;DHT22;51462;51.422;5.514;2023-02-28T18:13:50;5.70;99.90